createdAt,value
2017-06-04T00:00:51.284Z,41.93
2017-06-04T00:03:17.608Z,42.30
2017-06-04T00:05:43.982Z,36.00
2017-06-04T00:08:10.283Z,37.27
2017-06-04T00:10:36.567Z,32.03
2017-06-04T00:13:03.578Z,32.47
2017-06-04T00:15:30.999Z,32.47
2017-06-04T00:17:59.000Z,32.73
2017-06-04T00:20:27.380Z,31.37
2017-06-04T00:22:53.661Z,31.30
2017-06-04T00:25:19.994Z,27.50
2017-06-04T00:27:46.330Z,22.50
2017-06-04T00:30:12.727Z,24.17
2017-06-04T00:32:39.057Z,20.87
2017-06-04T00:35:05.349Z,23.80
2017-06-04T00:37:31.641Z,23.00
2017-06-04T00:39:57.945Z,20.93
2017-06-04T00:42:24.226Z,23.77
2017-06-04T00:44:50.587Z,18.33
2017-06-04T00:47:17.657Z,20.30
2017-06-04T00:49:45.690Z,18.60
2017-06-04T00:52:11.976Z,19.30
2017-06-04T00:54:39.994Z,19.50
2017-06-04T00:57:06.389Z,17.87
2017-06-04T00:59:33.582Z,20.43
2017-06-04T01:02:03.992Z,21.07
2017-06-04T01:04:32.163Z,19.10
2017-06-04T01:06:58.554Z,17.70
2017-06-04T01:09:27.238Z,18.67
2017-06-04T01:11:53.911Z,22.20
2017-06-04T01:14:21.934Z,22.37
2017-06-04T01:16:48.964Z,22.30
2017-06-04T01:19:16.994Z,25.90
2017-06-04T01:21:43.304Z,23.33
2017-06-04T01:24:11.335Z,22.20
2017-06-04T01:26:39.341Z,22.60
2017-06-04T01:29:05.625Z,24.20
2017-06-04T01:31:32.702Z,25.03
2017-06-04T01:33:58.978Z,24.60
2017-06-04T01:36:27.330Z,26.20
2017-06-04T01:38:53.647Z,26.63
2017-06-04T01:41:19.932Z,25.83
2017-06-04T01:43:47.003Z,26.80
2017-06-04T01:46:13.278Z,28.80
2017-06-04T01:48:39.602Z,27.93
2017-06-04T01:51:05.917Z,27.63
2017-06-04T01:53:33.345Z,27.77
2017-06-04T01:55:59.625Z,26.53
2017-06-04T01:58:27.805Z,32.43
2017-06-04T02:00:55.852Z,33.93
2017-06-04T02:03:22.250Z,35.80
2017-06-04T02:05:48.599Z,36.70
2017-06-04T02:08:15.234Z,38.23
2017-06-04T02:10:41.542Z,38.63
2017-06-04T02:13:07.813Z,38.30
2017-06-04T02:15:34.096Z,33.87
2017-06-04T02:18:01.474Z,32.10
2017-06-04T02:20:27.753Z,37.30
2017-06-04T02:22:54.059Z,40.90
2017-06-04T02:25:20.322Z,39.67
2017-06-04T02:27:47.342Z,37.80
2017-06-04T02:30:13.981Z,41.30
2017-06-04T02:32:40.254Z,40.03
2017-06-04T02:35:08.411Z,37.27
2017-06-04T02:37:36.408Z,39.00
2017-06-04T02:40:04.433Z,40.83
2017-06-04T02:42:31.481Z,39.73
2017-06-04T02:44:57.764Z,36.20
2017-06-04T02:47:24.107Z,34.63
2017-06-04T02:49:50.794Z,36.23
2017-06-04T02:52:17.838Z,34.57
2017-06-04T02:54:44.144Z,28.77
2017-06-04T02:57:10.427Z,34.43
2017-06-04T02:59:36.725Z,31.17
2017-06-04T03:02:03.739Z,27.10
2017-06-04T03:04:30.030Z,24.73
2017-06-04T03:06:56.293Z,28.13
2017-06-04T03:09:26.057Z,27.47
2017-06-04T03:11:53.467Z,29.70
2017-06-04T03:14:19.744Z,31.50
2017-06-04T03:16:46.055Z,30.83
2017-06-04T03:19:12.321Z,30.90
2017-06-04T03:21:40.307Z,31.83
2017-06-04T03:24:07.329Z,32.50
2017-06-04T03:26:33.610Z,30.40
2017-06-04T03:29:00.618Z,31.07
2017-06-04T03:31:26.912Z,31.00
2017-06-04T03:33:53.245Z,32.60
2017-06-04T03:36:19.534Z,31.77
2017-06-04T03:38:46.541Z,33.63
2017-06-04T03:41:12.820Z,35.30
2017-06-04T03:43:40.819Z,36.27
2017-06-04T03:46:08.805Z,36.30
2017-06-04T03:48:35.102Z,40.97
2017-06-04T03:51:01.424Z,43.20
2017-06-04T03:53:28.057Z,35.73
2017-06-04T03:55:54.352Z,37.87
2017-06-04T03:58:20.622Z,36.30
2017-06-04T04:00:46.887Z,34.20
2017-06-04T04:03:13.162Z,33.60
2017-06-04T04:05:40.195Z,36.17
2017-06-04T04:08:06.494Z,37.30
2017-06-04T04:10:32.770Z,31.33
2017-06-04T04:12:59.048Z,31.93
2017-06-04T04:15:25.354Z,32.87
2017-06-04T04:17:51.634Z,31.10
2017-06-04T04:20:19.625Z,29.63
2017-06-04T04:22:47.637Z,27.93
2017-06-04T04:25:13.939Z,32.87
2017-06-04T04:27:40.222Z,29.73
2017-06-04T04:30:06.510Z,33.90
2017-06-04T04:32:32.807Z,34.50
2017-06-04T04:34:59.114Z,30.27
2017-06-04T04:37:27.705Z,31.37
2017-06-04T04:39:54.453Z,29.97
2017-06-04T04:42:21.490Z,28.77
2017-06-04T04:44:48.134Z,26.70
2017-06-04T04:47:15.146Z,27.13
2017-06-04T04:49:41.427Z,24.33
2017-06-04T04:52:08.080Z,26.23
2017-06-04T04:54:36.075Z,27.47
2017-06-04T04:57:04.088Z,29.27
2017-06-04T04:59:30.405Z,29.73
2017-06-04T05:01:57.433Z,27.63
2017-06-04T05:04:23.814Z,26.00
2017-06-04T05:06:50.102Z,24.30
2017-06-04T05:09:17.114Z,24.43
2017-06-04T05:11:43.398Z,23.47
2017-06-04T05:14:10.420Z,25.00
2017-06-04T05:16:37.468Z,22.23
2017-06-04T05:19:05.244Z,22.73
2017-06-04T05:21:31.552Z,24.57
2017-06-04T05:24:03.823Z,24.17
2017-06-04T05:26:32.101Z,22.13
2017-06-04T05:28:58.666Z,22.80
2017-06-04T05:31:25.202Z,23.63
2017-06-04T05:33:51.730Z,24.40
2017-06-04T05:36:18.255Z,25.07
2017-06-04T05:38:44.810Z,26.83
2017-06-04T05:41:11.301Z,24.60
2017-06-04T05:43:37.737Z,23.70
2017-06-04T05:46:04.993Z,25.30
2017-06-04T05:48:31.546Z,25.67
2017-06-04T05:50:58.596Z,28.20
2017-06-04T05:53:25.173Z,26.20
2017-06-04T05:55:52.550Z,25.30
2017-06-04T05:58:19.859Z,27.60
2017-06-04T06:00:48.117Z,29.27
2017-06-04T06:03:15.122Z,30.40
2017-06-04T06:05:42.399Z,29.67
2017-06-04T06:08:09.638Z,29.70
2017-06-04T06:10:36.796Z,28.17
2017-06-04T06:13:03.308Z,25.37
2017-06-04T06:15:30.557Z,24.23
2017-06-04T06:17:56.960Z,25.93
2017-06-04T06:20:23.581Z,27.10
2017-06-04T06:22:50.121Z,25.67
2017-06-04T06:25:16.950Z,26.17
2017-06-04T06:27:43.544Z,21.40
2017-06-04T06:30:10.789Z,20.87
2017-06-04T06:32:38.994Z,17.87
2017-06-04T06:35:07.206Z,18.93
2017-06-04T06:37:33.734Z,17.83
2017-06-04T06:40:00.254Z,22.23
2017-06-04T06:42:26.783Z,22.47
2017-06-04T06:44:53.306Z,19.90
2017-06-04T06:47:19.903Z,17.23
2017-06-04T06:49:46.427Z,22.40
2017-06-04T06:52:12.922Z,18.40
2017-06-04T06:54:39.469Z,21.00
2017-06-04T06:57:05.967Z,17.70
2017-06-04T06:59:32.579Z,17.67
2017-06-04T07:01:59.826Z,18.03
2017-06-04T07:04:26.342Z,19.97
2017-06-04T07:06:54.581Z,17.97
2017-06-04T07:09:22.877Z,17.90
2017-06-04T07:11:50.538Z,18.90
2017-06-04T07:14:17.155Z,19.40
2017-06-04T07:16:43.659Z,18.60
2017-06-04T07:19:10.230Z,17.20
2017-06-04T07:21:37.115Z,18.50
2017-06-04T07:24:04.374Z,17.93
2017-06-04T07:26:31.606Z,17.80
2017-06-04T07:28:58.890Z,14.27
2017-06-04T07:31:26.187Z,15.20
2017-06-04T07:33:52.677Z,12.70
2017-06-04T07:36:19.218Z,16.33
2017-06-04T07:38:45.757Z,14.27
2017-06-04T07:41:14.017Z,17.07
2017-06-04T07:43:41.263Z,15.97
2017-06-04T07:46:08.334Z,17.17
2017-06-04T07:48:34.724Z,16.47
2017-06-04T07:51:00.996Z,14.60
2017-06-04T07:53:27.286Z,13.23
2017-06-04T07:55:54.311Z,12.90
2017-06-04T07:58:20.642Z,19.90
2017-06-04T08:00:48.104Z,18.10
2017-06-04T08:03:14.459Z,18.17
2017-06-04T08:05:41.506Z,17.80
2017-06-04T08:08:08.531Z,16.80
2017-06-04T08:10:34.810Z,14.40
2017-06-04T08:13:01.142Z,15.70
2017-06-04T08:15:29.187Z,11.73
2017-06-04T08:17:57.195Z,13.10
2017-06-04T08:20:23.530Z,13.10
2017-06-04T08:22:49.810Z,13.90
2017-06-04T08:25:16.948Z,14.70
2017-06-04T08:27:43.958Z,13.30
2017-06-04T08:30:10.222Z,10.93
2017-06-04T08:32:36.677Z,12.00
2017-06-04T08:35:02.974Z,10.57
2017-06-04T08:37:30.035Z,11.33
2017-06-04T08:39:56.309Z,11.50
2017-06-04T08:42:22.597Z,9.27
2017-06-04T08:44:48.926Z,11.53
2017-06-04T08:47:15.232Z,10.97
2017-06-04T08:49:41.531Z,7.77
2017-06-04T08:52:09.559Z,6.27
2017-06-04T08:54:36.252Z,5.87
2017-06-04T08:57:02.570Z,7.70
2017-06-04T08:59:28.874Z,7.73
2017-06-04T09:01:55.162Z,9.10
2017-06-04T09:04:22.218Z,10.03
2017-06-04T09:06:49.297Z,11.97
2017-06-04T09:09:15.572Z,10.87
2017-06-04T09:11:41.883Z,11.40
2017-06-04T09:14:08.537Z,12.70
2017-06-04T09:16:35.198Z,14.20
2017-06-04T09:19:01.545Z,14.67
2017-06-04T09:21:29.734Z,14.83
2017-06-04T09:23:58.218Z,19.60
2017-06-04T09:26:26.335Z,16.23
2017-06-04T09:28:53.405Z,18.23
2017-06-04T09:31:20.074Z,16.57
2017-06-04T09:33:46.442Z,14.43
2017-06-04T09:36:12.912Z,13.20
2017-06-04T09:38:39.922Z,16.33
2017-06-04T09:41:06.221Z,15.93
2017-06-04T09:43:32.567Z,16.50
2017-06-04T09:45:58.898Z,15.57
2017-06-04T09:48:25.221Z,13.07
2017-06-04T09:50:51.479Z,12.97
2017-06-04T09:53:18.523Z,15.30
2017-06-04T09:55:44.842Z,17.60
2017-06-04T09:58:11.863Z,19.27
2017-06-04T10:00:39.959Z,17.87
2017-06-04T10:03:07.969Z,19.03
2017-06-04T10:05:34.256Z,19.93
2017-06-04T10:08:00.554Z,19.47
2017-06-04T10:10:28.330Z,19.80
2017-06-04T10:12:54.610Z,18.27
2017-06-04T10:15:20.874Z,18.77
2017-06-04T10:17:47.158Z,19.13
2017-06-04T10:20:14.174Z,20.80
2017-06-04T10:22:41.584Z,17.23
2017-06-04T10:25:09.104Z,16.50
2017-06-04T10:27:36.114Z,14.33
2017-06-04T10:30:02.415Z,15.50
2017-06-04T10:32:30.445Z,14.60
2017-06-04T10:34:58.473Z,15.57
2017-06-04T10:37:24.795Z,14.80
2017-06-04T10:39:51.839Z,18.73
2017-06-04T10:42:18.164Z,16.23
2017-06-04T10:44:46.147Z,15.60
2017-06-04T10:47:16.234Z,18.57
2017-06-04T10:49:42.730Z,17.23
2017-06-04T10:52:11.144Z,17.27
2017-06-04T10:54:37.437Z,16.37
2017-06-04T10:57:04.226Z,13.60
2017-06-04T10:59:30.602Z,14.77
2017-06-04T11:01:57.635Z,13.70
2017-06-04T11:04:23.950Z,13.43
2017-06-04T11:06:51.981Z,13.30
2017-06-04T11:09:20.010Z,13.10
2017-06-04T11:11:47.833Z,14.03
2017-06-04T11:14:14.191Z,14.40
2017-06-04T11:16:40.560Z,14.53
2017-06-04T11:19:07.723Z,13.53
2017-06-04T11:21:35.111Z,12.87
2017-06-04T11:24:01.515Z,21.27
2017-06-04T11:26:27.954Z,39.50
2017-06-04T11:28:54.375Z,15.37
2017-06-04T11:31:20.798Z,13.97
2017-06-04T11:33:47.094Z,12.50
2017-06-04T11:36:14.178Z,11.33
2017-06-04T11:38:40.450Z,32.83
2017-06-04T11:41:08.472Z,25.57
2017-06-04T11:43:35.878Z,29.17
2017-06-04T11:46:02.934Z,17.93
2017-06-04T11:48:32.658Z,15.03
2017-06-04T11:50:59.718Z,46.20
2017-06-04T11:53:26.748Z,13.67
2017-06-04T11:55:54.813Z,14.47
2017-06-04T11:58:21.099Z,16.03
2017-06-04T12:00:47.389Z,13.40
2017-06-04T12:03:14.451Z,23.27
2017-06-04T12:05:40.775Z,14.97
2017-06-04T12:08:08.937Z,17.87
2017-06-04T12:10:36.962Z,30.47
2017-06-04T12:13:05.041Z,21.40
2017-06-04T12:15:31.333Z,26.40
2017-06-04T12:17:57.631Z,15.83
2017-06-04T12:20:26.531Z,15.50
2017-06-04T12:22:53.955Z,11.93
2017-06-04T12:25:20.234Z,11.07
2017-06-04T12:27:46.615Z,12.07
2017-06-04T12:30:12.913Z,8.77
2017-06-04T12:32:39.221Z,8.33
2017-06-04T12:35:07.217Z,8.33
2017-06-04T12:37:35.330Z,8.80
2017-06-04T12:40:03.496Z,8.77
2017-06-04T12:42:30.959Z,8.77
2017-06-04T12:44:58.986Z,9.23
2017-06-04T12:47:26.074Z,9.17
2017-06-04T12:49:53.933Z,10.00
2017-06-04T12:52:20.286Z,9.47
2017-06-04T12:54:46.556Z,9.70
2017-06-04T12:57:12.866Z,9.20
2017-06-04T12:59:40.859Z,8.73
2017-06-04T13:02:07.131Z,9.87
2017-06-04T13:04:35.173Z,8.90
2017-06-04T13:07:02.560Z,9.97
2017-06-04T13:09:28.858Z,10.33
2017-06-04T13:11:56.118Z,10.50
2017-06-04T13:14:23.985Z,11.90
2017-06-04T13:16:52.036Z,10.87
2017-06-04T13:19:19.808Z,11.23
2017-06-04T13:21:47.853Z,12.70
2017-06-04T13:24:14.920Z,13.20
2017-06-04T13:26:41.210Z,12.33
2017-06-04T13:29:08.355Z,13.00
2017-06-04T13:31:35.051Z,16.77
2017-06-04T13:34:02.097Z,11.73
2017-06-04T13:36:29.328Z,13.70
2017-06-04T13:38:55.630Z,9.03
2017-06-04T13:41:21.923Z,9.70
2017-06-04T13:43:48.247Z,10.57
2017-06-04T13:46:14.550Z,8.87
2017-06-04T13:48:42.554Z,9.30
2017-06-04T13:51:10.559Z,10.10
2017-06-04T13:53:36.836Z,10.50
2017-06-04T13:56:04.912Z,8.97
2017-06-04T13:58:32.342Z,8.90
2017-06-04T14:01:00.580Z,8.53
2017-06-04T14:03:27.971Z,9.40
2017-06-04T14:05:55.676Z,7.90
2017-06-04T14:08:22.292Z,7.53
2017-06-04T14:10:48.983Z,7.53
2017-06-04T14:13:20.553Z,7.40
2017-06-04T14:15:47.075Z,7.13
2017-06-04T14:18:14.803Z,6.60
2017-06-04T14:20:43.049Z,6.33
2017-06-04T14:23:09.402Z,5.57
2017-06-04T14:25:35.784Z,5.20
2017-06-04T14:28:02.116Z,4.83
2017-06-04T14:30:29.539Z,5.00
2017-06-04T14:32:55.862Z,5.10
2017-06-04T14:35:22.210Z,4.50
2017-06-04T14:37:49.703Z,5.30
2017-06-04T14:40:16.032Z,4.70
2017-06-04T14:42:43.059Z,3.00
2017-06-04T14:45:09.367Z,2.60
2017-06-04T14:47:35.750Z,2.90
2017-06-04T14:50:03.617Z,3.30
2017-06-04T14:52:31.519Z,3.00
2017-06-04T14:54:58.167Z,3.10
2017-06-04T14:57:26.138Z,3.00
2017-06-04T14:59:52.442Z,4.40
2017-06-04T15:02:18.775Z,3.80
2017-06-04T15:04:46.873Z,3.77
2017-06-04T15:07:13.211Z,3.20
2017-06-04T15:09:39.566Z,2.83
2017-06-04T15:12:05.844Z,2.60
2017-06-04T15:14:33.610Z,2.60
2017-06-04T15:16:59.913Z,2.70
2017-06-04T15:19:28.045Z,2.77
2017-06-04T15:21:55.467Z,2.77
2017-06-04T15:24:21.812Z,3.47
2017-06-04T15:26:48.114Z,2.57
2017-06-04T15:29:15.990Z,2.87
2017-06-04T15:31:47.465Z,3.00
2017-06-04T15:34:15.741Z,3.80
2017-06-04T15:36:42.858Z,3.57
2017-06-04T15:39:09.130Z,3.43
2017-06-04T15:41:35.466Z,3.57
2017-06-04T15:44:01.811Z,3.03
2017-06-04T15:46:28.071Z,3.93
2017-06-04T15:48:56.072Z,2.60
2017-06-04T15:51:23.467Z,3.10
2017-06-04T15:53:50.478Z,3.33
2017-06-04T15:56:17.535Z,2.80
2017-06-04T15:58:45.542Z,2.73
2017-06-04T16:01:13.670Z,2.40
2017-06-04T16:03:40.750Z,3.70
2017-06-04T16:06:07.406Z,3.43
2017-06-04T16:08:33.724Z,3.27
2017-06-04T16:11:01.750Z,2.20
2017-06-04T16:13:28.146Z,2.03
2017-06-04T16:15:55.551Z,2.33
2017-06-04T16:18:21.844Z,2.43
2017-06-04T16:20:49.618Z,3.37
2017-06-04T16:23:17.482Z,2.30
2017-06-04T16:25:45.445Z,2.93
2017-06-04T16:28:12.636Z,3.57
2017-06-04T16:30:40.654Z,2.47
2017-06-04T16:33:08.692Z,3.87
2017-06-04T16:35:36.496Z,3.43
2017-06-04T16:38:03.531Z,4.13
2017-06-04T16:40:29.871Z,3.90
2017-06-04T16:42:56.664Z,3.40
2017-06-04T16:45:24.800Z,3.90
2017-06-04T16:47:51.227Z,2.80
2017-06-04T16:50:21.333Z,3.50
2017-06-04T16:52:48.388Z,3.17
2017-06-04T16:55:15.414Z,3.30
2017-06-04T16:57:41.707Z,3.37
2017-06-04T17:00:08.094Z,3.10
2017-06-04T17:02:36.174Z,3.93
2017-06-04T17:05:04.175Z,3.17
2017-06-04T17:07:30.507Z,3.90
2017-06-04T17:09:56.834Z,4.70
2017-06-04T17:12:23.126Z,3.50
2017-06-04T17:14:50.162Z,2.83
2017-06-04T17:17:16.446Z,3.33
2017-06-04T17:19:43.910Z,5.73
2017-06-04T17:22:10.224Z,4.03
2017-06-04T17:24:36.719Z,4.10
2017-06-04T17:27:04.157Z,4.30
2017-06-04T17:29:30.457Z,2.93
2017-06-04T17:31:57.858Z,3.10
2017-06-04T17:34:25.293Z,3.40
2017-06-04T17:36:53.315Z,3.63
2017-06-04T17:39:21.307Z,3.70
2017-06-04T17:41:49.362Z,5.70
2017-06-04T17:44:15.710Z,4.17
2017-06-04T17:46:42.770Z,3.93
2017-06-04T17:49:09.067Z,3.83
2017-06-04T17:51:35.710Z,3.60
2017-06-04T17:54:02.366Z,3.43
2017-06-04T17:56:29.050Z,3.77
2017-06-04T17:58:55.368Z,4.10
2017-06-04T18:01:22.392Z,3.50
2017-06-04T18:03:48.703Z,3.57
2017-06-04T18:06:15.392Z,4.40
2017-06-04T18:08:41.699Z,3.77
2017-06-04T18:11:09.778Z,3.80
2017-06-04T18:13:37.874Z,4.57
2017-06-04T18:16:04.163Z,5.63
2017-06-04T18:18:31.203Z,4.80
2017-06-04T18:21:04.360Z,4.53
2017-06-04T18:23:30.685Z,4.10
2017-06-04T18:25:58.488Z,3.53
2017-06-04T18:28:24.790Z,4.27
2017-06-04T18:30:51.092Z,4.07
2017-06-04T18:33:17.367Z,2.90
2017-06-04T18:35:44.402Z,3.50
2017-06-04T18:38:10.738Z,3.80
2017-06-04T18:40:38.750Z,3.90
2017-06-04T18:43:06.778Z,4.00
2017-06-04T18:45:34.818Z,5.00
2017-06-04T18:48:01.083Z,4.30
2017-06-04T18:50:28.130Z,4.43
2017-06-04T18:52:54.431Z,4.83
2017-06-04T18:55:20.794Z,3.10
2017-06-04T18:57:47.068Z,3.37
2017-06-04T19:00:13.370Z,3.43
2017-06-04T19:02:39.661Z,3.20
2017-06-04T19:05:07.135Z,2.80
2017-06-04T19:07:34.910Z,2.97
2017-06-04T19:10:01.991Z,2.77
2017-06-04T19:12:28.375Z,3.00
2017-06-04T19:14:55.839Z,2.10
2017-06-04T19:17:23.862Z,2.30
2017-06-04T19:19:50.219Z,4.20
2017-06-04T19:22:16.531Z,3.67
2017-06-04T19:24:42.810Z,3.03
2017-06-04T19:27:10.853Z,3.73
2017-06-04T19:29:37.198Z,2.73
2017-06-04T19:32:03.502Z,1.97
2017-06-04T19:34:29.826Z,2.20
2017-06-04T19:36:56.142Z,2.83
2017-06-04T19:39:22.418Z,1.70
2017-06-04T19:41:49.442Z,2.10
2017-06-04T19:44:16.103Z,1.90
2017-06-04T19:46:43.154Z,4.07
2017-06-04T19:49:09.504Z,1.77
2017-06-04T19:51:37.530Z,2.27
2017-06-04T19:54:05.541Z,3.23
2017-06-04T19:56:31.947Z,3.60
2017-06-04T19:59:00.377Z,3.50
2017-06-04T20:01:27.688Z,2.20
2017-06-04T20:03:55.707Z,2.47
2017-06-04T20:06:23.738Z,3.27
2017-06-04T20:08:51.558Z,2.60
2017-06-04T20:11:19.645Z,2.20
2017-06-04T20:13:46.011Z,2.07
2017-06-04T20:16:13.460Z,2.23
2017-06-04T20:18:39.837Z,2.60
2017-06-04T20:21:07.906Z,2.00
2017-06-04T20:23:35.938Z,2.67
2017-06-04T20:26:04.605Z,3.33
2017-06-04T20:28:31.362Z,3.17
2017-06-04T20:31:00.526Z,3.33
2017-06-04T20:33:27.615Z,2.03
2017-06-04T20:35:54.698Z,2.60
2017-06-04T20:38:21.024Z,2.10
2017-06-04T20:40:49.267Z,2.33
2017-06-04T20:43:17.076Z,2.00
2017-06-04T20:45:44.997Z,2.80
2017-06-04T20:48:11.386Z,2.20
2017-06-04T20:50:39.511Z,2.67
2017-06-04T20:53:07.585Z,2.40
2017-06-04T20:55:35.582Z,3.10
2017-06-04T20:58:04.259Z,4.00
2017-06-04T21:00:31.807Z,2.60
2017-06-04T21:02:58.966Z,2.53
2017-06-04T21:05:25.630Z,2.90
2017-06-04T21:07:52.751Z,2.53
2017-06-04T21:10:19.524Z,2.83
2017-06-04T21:12:45.835Z,2.27
2017-06-04T21:15:12.173Z,2.20
2017-06-04T21:17:38.863Z,3.00
2017-06-04T21:20:06.647Z,3.17
2017-06-04T21:22:34.546Z,2.57
2017-06-04T21:25:02.838Z,2.40
2017-06-04T21:27:30.252Z,3.63
2017-06-04T21:29:57.686Z,2.70
2017-06-04T21:32:26.229Z,2.63
2017-06-04T21:34:52.633Z,2.20
2017-06-04T21:37:20.001Z,2.00
2017-06-04T21:39:46.638Z,2.00
2017-06-04T21:42:14.963Z,1.53
2017-06-04T21:44:41.814Z,2.17
2017-06-04T21:47:08.715Z,2.23
2017-06-04T21:49:36.127Z,2.70
2017-06-04T21:52:06.492Z,3.20
2017-06-04T21:54:35.227Z,2.43
2017-06-04T21:57:03.622Z,3.83
2017-06-04T21:59:30.897Z,3.70
2017-06-04T22:01:57.648Z,3.20
2017-06-04T22:04:24.534Z,2.60
2017-06-04T22:06:52.680Z,2.40
2017-06-04T22:09:20.292Z,2.20
2017-06-04T22:11:48.423Z,2.27
2017-06-04T22:14:15.666Z,1.90
2017-06-04T22:16:42.174Z,2.53
2017-06-04T22:19:18.867Z,2.67
2017-06-04T22:21:47.113Z,2.47
2017-06-04T22:24:13.826Z,2.03
2017-06-04T22:26:42.050Z,2.30
2017-06-04T22:29:08.704Z,1.90
2017-06-04T22:31:36.306Z,2.47
2017-06-04T22:34:02.846Z,2.70
2017-06-04T22:36:29.362Z,2.20
2017-06-04T22:38:56.626Z,2.60
2017-06-04T22:41:23.132Z,1.90
2017-06-04T22:43:51.186Z,2.10
2017-06-04T22:46:23.965Z,1.80
2017-06-04T22:48:52.221Z,1.90
2017-06-04T22:51:21.625Z,2.03
2017-06-04T22:53:49.892Z,2.67
2017-06-04T22:56:16.467Z,2.60
2017-06-04T22:58:43.396Z,1.90
2017-06-04T23:01:09.904Z,2.10
2017-06-04T23:03:36.505Z,2.07
2017-06-04T23:06:03.796Z,1.80
2017-06-04T23:08:33.129Z,2.37
2017-06-04T23:10:59.734Z,3.00
2017-06-04T23:13:27.064Z,2.03
2017-06-04T23:15:53.966Z,2.30
2017-06-04T23:18:20.546Z,1.77
2017-06-04T23:20:48.786Z,1.83
2017-06-04T23:23:17.022Z,2.10
2017-06-04T23:25:44.292Z,2.50
2017-06-04T23:28:10.801Z,2.10
2017-06-04T23:30:38.437Z,1.97
2017-06-04T23:33:04.971Z,1.43
2017-06-04T23:35:32.220Z,1.63
2017-06-04T23:37:58.764Z,1.30
2017-06-04T23:40:25.289Z,1.63
2017-06-04T23:42:52.413Z,1.73
2017-06-04T23:45:19.683Z,1.70
2017-06-04T23:47:46.263Z,1.60
2017-06-04T23:50:14.486Z,1.60
2017-06-04T23:52:42.725Z,2.27
2017-06-04T23:55:10.961Z,2.73
2017-06-04T23:57:38.934Z,2.30
